Time;durP1;ratioP1;P1;durP2;ratioP2;P2;SDS_P1;SDS_P2;PMS_P1;PMS_P2;Temp;Humidity;BMP_temperature;BMP_pressure;BME280_temperature;BME280_humidity;BME280_pressure;Samples;Min_cycle;Max_cycle;Signal;HPM_P1;HPM_P2
2021/07/10 00:00:50;;;;;;;21.30;14.57;;;15.70;90.70;;;;;;5072125;28;20190;-86
2021/07/10 00:03:16;;;;;;;21.70;15.47;;;15.70;90.80;;;;;;5072038;28;20537;-86
2021/07/10 00:05:41;;;;;;;25.13;15.73;;;15.70;90.70;;;;;;5073250;28;20282;-86
2021/07/10 00:08:07;;;;;;;29.63;17.50;;;15.70;90.60;;;;;;5073437;28;20281;-85
2021/07/10 00:10:33;;;;;;;23.60;17.53;;;15.70;90.60;;;;;;5071958;28;20256;-86
2021/07/10 00:12:59;;;;;;;24.17;16.70;;;15.60;90.80;;;;;;5071956;28;20661;-86
2021/07/10 00:15:25;;;;;;;22.73;16.90;;;15.60;90.90;;;;;;5073134;28;20198;-86
2021/07/10 00:17:51;;;;;;;21.08;17.00;;;15.70;90.90;;;;;;5073232;28;20174;-86
2021/07/10 00:20:18;;;;;;;34.43;19.07;;;15.60;90.80;;;;;;5071947;28;20643;-85
2021/07/10 00:22:44;;;;;;;20.47;16.80;;;15.60;90.90;;;;;;5071893;28;20820;-85
2021/07/10 00:25:12;;;;;;;28.13;16.63;;;15.60;90.90;;;;;;5071734;28;20179;-86
2021/07/10 00:27:40;;;;;;;24.03;17.97;;;15.60;90.80;;;;;;5071753;28;20211;-86
2021/07/10 00:30:07;;;;;;;29.33;16.80;;;15.60;90.90;;;;;;5071836;28;20179;-86
2021/07/10 00:32:33;;;;;;;21.77;16.80;;;15.50;91.00;;;;;;5071769;28;20175;-86
2021/07/10 00:34:59;;;;;;;29.23;17.90;;;15.50;91.00;;;;;;5071721;28;20183;-86
2021/07/10 00:37:24;;;;;;;25.73;17.27;;;15.50;91.00;;;;;;5071607;28;20233;-86
2021/07/10 00:39:50;;;;;;;24.07;17.60;;;15.40;91.00;;;;;;5071681;28;20183;-86
2021/07/10 00:42:19;;;;;;;26.93;18.47;;;15.40;91.20;;;;;;5071730;28;20236;-86
2021/07/10 00:44:46;;;;;;;30.80;19.27;;;15.40;91.30;;;;;;5073189;28;20253;-86
2021/07/10 00:47:12;;;;;;;27.00;18.77;;;15.40;91.20;;;;;;5072668;28;20676;-86
2021/07/10 00:49:37;;;;;;;28.57;18.67;;;15.40;91.20;;;;;;5071743;28;20271;-86
2021/07/10 00:52:04;;;;;;;32.60;18.47;;;15.50;91.20;;;;;;5076841;28;20250;-86
2021/07/10 00:54:30;;;;;;;28.93;18.03;;;15.50;91.20;;;;;;5075546;28;20530;-86
2021/07/10 00:56:58;;;;;;;29.83;20.27;;;15.50;91.20;;;;;;5076626;28;20205;-86
2021/07/10 00:59:28;;;;;;;30.23;20.80;;;15.50;91.10;;;;;;5076731;28;20543;-86
2021/07/10 01:01:55;;;;;;;24.43;17.87;;;15.50;91.10;;;;;;5076967;28;20642;-85
2021/07/10 01:04:21;;;;;;;25.50;18.13;;;15.50;91.10;;;;;;5076626;28;20232;-86
2021/07/10 01:06:47;;;;;;;30.07;19.30;;;15.50;91.10;;;;;;5075189;28;20674;-85
2021/07/10 01:09:14;;;;;;;27.60;18.77;;;15.50;91.10;;;;;;5075186;28;20179;-86
2021/07/10 01:11:40;;;;;;;28.63;20.00;;;15.50;91.10;;;;;;5075160;28;20179;-85
2021/07/10 01:14:06;;;;;;;27.37;20.13;;;15.40;91.10;;;;;;5076398;28;20176;-86
2021/07/10 01:16:32;;;;;;;27.17;20.30;;;15.40;91.10;;;;;;5076254;28;20203;-86
2021/07/10 01:18:57;;;;;;;30.73;21.27;;;15.40;91.20;;;;;;5076352;28;20176;-86
2021/07/10 01:21:23;;;;;;;25.93;19.50;;;15.40;91.30;;;;;;5075056;28;20172;-86
2021/07/10 01:23:50;;;;;;;23.67;19.70;;;15.40;91.20;;;;;;5074959;28;20639;-86
2021/07/10 01:26:19;;;;;;;27.60;21.63;;;15.40;91.20;;;;;;5074764;28;20198;-86
2021/07/10 01:28:45;;;;;;;31.27;23.40;;;15.50;91.20;;;;;;5076041;28;20195;-86
2021/07/10 01:31:11;;;;;;;30.17;22.93;;;15.40;91.30;;;;;;5075077;28;20171;-86
2021/07/10 01:33:37;;;;;;;35.10;22.77;;;15.40;91.30;;;;;;5074777;28;20179;-86
2021/07/10 01:36:04;;;;;;;29.30;21.20;;;15.50;91.30;;;;;;5074702;28;20201;-86
2021/07/10 01:38:29;;;;;;;32.17;21.57;;;15.50;91.20;;;;;;5074714;28;20227;-86
2021/07/10 01:40:55;;;;;;;28.20;21.13;;;15.50;91.20;;;;;;5075959;28;20698;-86
2021/07/10 01:43:20;;;;;;;30.83;22.17;;;15.60;91.20;;;;;;5075952;28;20531;-86
2021/07/10 01:45:46;;;;;;;32.10;21.80;;;15.50;91.20;;;;;;5074322;28;20238;-86
2021/07/10 01:48:13;;;;;;;33.37;20.33;;;15.60;91.10;;;;;;5075721;28;20202;-86
2021/07/10 01:50:40;;;;;;;23.30;19.27;;;15.60;91.20;;;;;;5074535;28;20258;-86
2021/07/10 01:53:06;;;;;;;29.67;20.60;;;15.50;91.20;;;;;;5075764;28;20220;-86
2021/07/10 01:55:32;;;;;;;25.67;18.33;;;15.60;91.10;;;;;;5074330;28;20282;-86
2021/07/10 01:57:59;;;;;;;23.10;19.07;;;15.50;91.10;;;;;;5074443;28;20325;-86
2021/07/10 02:00:27;;;;;;;28.83;18.77;;;15.50;91.00;;;;;;5074332;28;20224;-86
2021/07/10 02:02:54;;;;;;;22.07;17.30;;;15.50;91.20;;;;;;5073083;28;20183;-85
2021/07/10 02:05:22;;;;;;;28.20;18.37;;;15.50;91.20;;;;;;5074431;28;20183;-86
2021/07/10 02:07:49;;;;;;;26.87;16.70;;;15.50;91.20;;;;;;5074108;28;20230;-86
2021/07/10 02:10:16;;;;;;;29.03;16.93;;;15.50;91.30;;;;;;5075388;28;20229;-86
2021/07/10 02:12:50;;;;;;;25.60;17.00;;;15.50;91.20;;;;;;5075314;28;20172;-86
2021/07/10 02:15:16;;;;;;;21.33;16.03;;;15.50;91.30;;;;;;5074030;28;20251;-86
2021/07/10 02:17:44;;;;;;;19.33;15.37;;;15.40;91.20;;;;;;5074022;28;20186;-86
2021/07/10 02:20:12;;;;;;;25.90;15.63;;;15.40;91.20;;;;;;5073893;28;20672;-86
2021/07/10 02:22:37;;;;;;;23.53;14.57;;;15.40;91.10;;;;;;5073878;28;20641;-86
2021/07/10 02:25:08;;;;;;;27.27;15.47;;;15.40;91.00;;;;;;5073891;28;20190;-86
2021/07/10 02:27:34;;;;;;;22.93;14.87;;;15.40;91.00;;;;;;5074921;28;20645;-86
2021/07/10 02:30:00;;;;;;;23.33;16.30;;;15.40;91.10;;;;;;5073663;28;20214;-86
2021/07/10 02:32:26;;;;;;;24.27;16.33;;;15.40;91.00;;;;;;5073685;28;20271;-85
2021/07/10 02:34:51;;;;;;;24.50;16.47;;;15.50;91.20;;;;;;5074867;28;20171;-86
2021/07/10 02:37:17;;;;;;;22.43;15.90;;;15.50;91.30;;;;;;5075914;28;20191;-86
2021/07/10 02:39:43;;;;;;;19.30;14.20;;;15.50;91.40;;;;;;5073514;28;20184;-86
2021/07/10 02:42:08;;;;;;;22.53;14.73;;;15.60;91.20;;;;;;5073489;28;20183;-86
2021/07/10 02:44:34;;;;;;;27.03;16.23;;;15.70;90.80;;;;;;5074732;28;20187;-86
2021/07/10 02:46:59;;;;;;;21.17;14.93;;;15.60;90.50;;;;;;5073168;28;20579;-86
2021/07/10 02:49:25;;;;;;;19.20;15.00;;;15.70;90.60;;;;;;5073360;28;20176;-86
2021/07/10 02:51:50;;;;;;;26.70;15.60;;;15.60;90.60;;;;;;5073281;28;20666;-86
2021/07/10 02:54:16;;;;;;;22.67;13.60;;;15.60;90.70;;;;;;5074551;28;20179;-85
2021/07/10 02:56:42;;;;;;;21.77;15.20;;;15.60;90.70;;;;;;5073182;28;20214;-85
2021/07/10 02:59:07;;;;;;;21.73;13.93;;;15.60;90.80;;;;;;5074447;28;20171;-85
2021/07/10 03:01:33;;;;;;;21.60;14.80;;;15.60;90.60;;;;;;5074405;28;20171;-85
2021/07/10 03:03:59;;;;;;;24.10;15.57;;;15.60;90.60;;;;;;5073053;28;20649;-85
2021/07/10 03:06:24;;;;;;;24.80;15.00;;;15.50;90.90;;;;;;5074133;28;20214;-86
2021/07/10 03:08:50;;;;;;;21.20;14.33;;;15.60;90.70;;;;;;5072915;28;20211;-85
2021/07/10 03:11:16;;;;;;;18.07;13.87;;;15.60;90.70;;;;;;5072945;28;20214;-86
2021/07/10 03:13:41;;;;;;;21.90;14.93;;;15.60;90.70;;;;;;5072617;28;20176;-85
2021/07/10 03:16:07;;;;;;;21.00;14.27;;;15.60;90.70;;;;;;5072789;28;20191;-86
2021/07/10 03:18:34;;;;;;;20.83;14.63;;;15.60;90.60;;;;;;5072711;28;20586;-86
2021/07/10 03:21:00;;;;;;;23.67;14.17;;;15.50;90.60;;;;;;5074276;28;20183;-86
2021/07/10 03:23:26;;;;;;;19.90;15.57;;;15.60;90.80;;;;;;5072757;28;20183;-86
2021/07/10 03:25:51;;;;;;;19.53;15.17;;;15.50;90.70;;;;;;5073791;28;20205;-86
2021/07/10 03:28:17;;;;;;;18.83;15.67;;;15.60;90.70;;;;;;5072504;28;20248;-86
2021/07/10 03:30:48;;;;;;;25.60;16.43;;;15.50;90.70;;;;;;5073827;28;20167;-86
2021/07/10 03:33:14;;;;;;;28.53;18.03;;;15.50;90.80;;;;;;5072539;28;20172;-86
2021/07/10 03:35:39;;;;;;;20.30;15.63;;;15.40;90.80;;;;;;5073649;28;20199;-86
2021/07/10 03:38:05;;;;;;;22.33;14.87;;;15.50;90.70;;;;;;5073950;28;20650;-86
2021/07/10 03:40:31;;;;;;;26.33;14.40;;;15.50;90.60;;;;;;5072362;28;20175;-86
2021/07/10 03:42:56;;;;;;;20.53;15.03;;;15.50;90.70;;;;;;5072341;28;20653;-86
2021/07/10 03:45:22;;;;;;;21.97;14.27;;;15.60;90.80;;;;;;5073375;28;20540;-86
2021/07/10 03:47:48;;;;;;;19.80;13.97;;;15.60;90.80;;;;;;5072251;28;20249;-86
2021/07/10 03:50:15;;;;;;;18.13;14.07;;;15.70;90.70;;;;;;5072294;28;20183;-86
2021/07/10 03:52:41;;;;;;;21.23;13.67;;;15.70;90.70;;;;;;5072738;28;20556;-86
2021/07/10 03:55:11;;;;;;;16.60;12.63;;;15.70;90.70;;;;;;5072163;28;20171;-86
2021/07/10 03:57:37;;;;;;;25.27;13.43;;;15.70;90.70;;;;;;5072217;28;20654;-86
2021/07/10 04:00:10;;;;;;;21.30;14.10;;;15.80;90.70;;;;;;5072171;28;20178;-86
2021/07/10 04:02:36;;;;;;;17.77;13.37;;;15.80;90.50;;;;;;5073517;28;20183;-86
2021/07/10 04:05:03;;;;;;;15.80;12.60;;;15.80;90.30;;;;;;5073330;28;20182;-86
2021/07/10 04:07:32;;;;;;;16.50;11.40;;;15.80;90.20;;;;;;5073169;28;20196;-86
2021/07/10 04:09:59;;;;;;;16.53;12.20;;;15.80;90.10;;;;;;5073775;28;20213;-86
2021/07/10 04:12:25;;;;;;;14.80;12.80;;;15.80;90.00;;;;;;5072872;28;20180;-85
2021/07/10 04:14:51;;;;;;;19.70;13.63;;;15.80;89.80;;;;;;5073199;28;20175;-86
2021/07/10 04:17:17;;;;;;;18.00;13.80;;;15.80;90.00;;;;;;5071899;28;20199;-86
2021/07/10 04:19:43;;;;;;;21.53;13.83;;;15.80;89.90;;;;;;5073200;28;20175;-86
2021/07/10 04:22:09;;;;;;;24.53;13.63;;;15.80;90.10;;;;;;5073180;28;20168;-86
2021/07/10 04:24:35;;;;;;;15.33;12.20;;;15.80;90.10;;;;;;5072407;28;20171;-86
2021/07/10 04:27:00;;;;;;;18.00;12.30;;;15.80;89.90;;;;;;5072951;28;20206;-86
2021/07/10 04:29:26;;;;;;;22.23;11.73;;;15.80;89.90;;;;;;5073151;28;20159;-86
2021/07/10 04:31:52;;;;;;;18.07;13.57;;;15.80;89.90;;;;;;5071809;28;20262;-86
2021/07/10 04:34:17;;;;;;;18.17;13.43;;;15.80;89.70;;;;;;5071769;28;20546;-86
2021/07/10 04:36:43;;;;;;;17.03;12.37;;;15.80;89.80;;;;;;5071671;28;20565;-86
2021/07/10 04:39:08;;;;;;;17.15;12.13;;;15.90;89.90;;;;;;5071700;28;20179;-86
2021/07/10 04:41:34;;;;;;;15.07;12.70;;;15.90;90.00;;;;;;5072933;28;20201;-85
2021/07/10 04:44:00;;;;;;;16.73;12.33;;;15.90;89.60;;;;;;5071676;28;20179;-86
2021/07/10 04:46:25;;;;;;;14.00;11.83;;;15.90;89.80;;;;;;5071123;28;20221;-86
2021/07/10 04:48:51;;;;;;;15.53;11.33;;;15.90;89.80;;;;;;5071938;28;20679;-86
2021/07/10 04:51:16;;;;;;;18.67;10.70;;;16.00;89.40;;;;;;5071915;28;20172;-86
2021/07/10 04:53:42;;;;;;;14.40;9.87;;;16.00;89.40;;;;;;5071925;28;20168;-86
2021/07/10 04:56:07;;;;;;;17.77;11.70;;;16.00;89.20;;;;;;5071804;28;20192;-86
2021/07/10 04:58:33;;;;;;;20.92;11.70;;;16.00;89.40;;;;;;5070578;28;20588;-86
2021/07/10 05:00:59;;;;;;;15.30;11.67;;;16.00;89.30;;;;;;5071828;28;20187;-86
2021/07/10 05:03:24;;;;;;;17.07;11.40;;;16.10;89.20;;;;;;5071751;28;20180;-86
2021/07/10 05:05:50;;;;;;;18.03;10.80;;;16.10;89.50;;;;;;5070425;28;20333;-86
2021/07/10 05:08:15;;;;;;;15.40;9.83;;;16.10;89.20;;;;;;5071704;28;20211;-86
2021/07/10 05:10:41;;;;;;;14.77;10.30;;;16.10;89.20;;;;;;5070477;28;20172;-86
2021/07/10 05:13:09;;;;;;;12.32;8.85;;;16.10;89.10;;;;;;5071795;28;20164;-86
2021/07/10 05:15:35;;;;;;;10.32;9.00;;;16.20;88.70;;;;;;5070237;28;20233;-86
2021/07/10 05:18:00;;;;;;;16.47;9.53;;;16.20;88.40;;;;;;5071658;28;20190;-86
2021/07/10 05:20:27;;;;;;;11.60;8.70;;;16.20;88.50;;;;;;5070252;28;20175;-86
2021/07/10 05:22:53;;;;;;;13.03;8.57;;;16.20;88.70;;;;;;5071524;28;20175;-86
2021/07/10 05:25:18;;;;;;;13.57;9.00;;;16.20;87.90;;;;;;5071660;28;20168;-86
2021/07/10 05:27:44;;;;;;;15.23;9.50;;;16.20;88.20;;;;;;5071003;28;20269;-86
2021/07/10 05:30:13;;;;;;;12.67;8.70;;;16.20;88.40;;;;;;5070259;28;20210;-86
2021/07/10 05:32:39;;;;;;;10.77;8.97;;;16.30;88.30;;;;;;5070149;28;20225;-86
2021/07/10 05:35:07;;;;;;;11.23;8.10;;;16.30;87.50;;;;;;5071306;28;20202;-86
2021/07/10 05:37:33;;;;;;;14.27;9.80;;;16.30;87.10;;;;;;5072923;28;20221;-86
2021/07/10 05:39:59;;;;;;;12.52;9.27;;;16.30;87.50;;;;;;5073638;28;20176;-86
2021/07/10 05:42:24;;;;;;;22.38;14.95;;;16.50;87.70;;;;;;5074792;28;20187;-86
2021/07/10 05:44:50;;;;;;;12.05;10.55;;;16.60;87.90;;;;;;5074710;28;20167;-86
2021/07/10 05:47:16;;;;;;;15.88;11.48;;;16.60;88.00;;;;;;5036116;28;1092678;-86
2021/07/10 05:49:41;;;;;;;14.55;9.80;;;16.70;88.10;;;;;;5074506;28;20206;-86
2021/07/10 05:52:07;;;;;;;10.00;8.15;;;16.70;87.90;;;;;;5074485;28;20524;-86
2021/07/10 05:54:33;;;;;;;13.40;9.23;;;16.80;87.20;;;;;;5075957;28;20167;-86
2021/07/10 05:56:58;;;;;;;13.25;10.32;;;16.90;88.30;;;;;;5075586;28;20209;-86
2021/07/10 05:59:24;;;;;;;12.75;9.07;;;16.90;87.50;;;;;;5074370;28;20278;-86
2021/07/10 06:01:50;;;;;;;12.27;10.25;;;16.90;86.40;;;;;;5075864;28;20586;-86
2021/07/10 06:04:15;;;;;;;10.10;9.07;;;16.90;87.20;;;;;;5074834;28;20180;-86
2021/07/10 06:06:41;;;;;;;16.02;9.20;;;16.90;86.70;;;;;;5074160;28;20203;-85
2021/07/10 06:09:06;;;;;;;11.95;10.15;;;16.90;86.60;;;;;;5074157;28;20175;-84
2021/07/10 06:11:32;;;;;;;17.60;11.38;;;16.90;86.60;;;;;;5075456;28;20297;-85
2021/07/10 06:13:58;;;;;;;17.05;11.68;;;16.90;87.00;;;;;;5075367;28;20572;-85
2021/07/10 06:16:23;;;;;;;17.83;11.38;;;16.90;87.10;;;;;;5075581;28;20194;-85
2021/07/10 06:18:49;;;;;;;14.38;10.02;;;16.90;86.50;;;;;;5075325;28;20258;-85
2021/07/10 06:21:14;;;;;;;15.30;10.38;;;16.90;86.40;;;;;;5073937;28;20180;-85
2021/07/10 06:23:43;;;;;;;11.30;9.23;;;16.90;87.00;;;;;;5075280;28;20598;-85
2021/07/10 06:26:09;;;;;;;17.55;10.50;;;16.90;86.90;;;;;;5074987;28;20203;-85
2021/07/10 06:28:35;;;;;;;13.20;10.20;;;16.90;87.20;;;;;;5073722;28;20207;-85
2021/07/10 06:31:00;;;;;;;18.73;10.30;;;17.00;87.20;;;;;;5075121;28;20175;-85
2021/07/10 06:33:26;;;;;;;17.10;10.32;;;17.00;87.70;;;;;;5073768;28;20649;-85
2021/07/10 06:35:51;;;;;;;14.55;9.80;;;17.00;86.90;;;;;;5074933;28;20180;-85
2021/07/10 06:38:17;;;;;;;13.93;9.98;;;17.00;86.60;;;;;;5073588;28;20179;-85
2021/07/10 06:40:42;;;;;;;14.05;9.63;;;17.00;86.30;;;;;;5073545;28;20546;-85
2021/07/10 06:43:08;;;;;;;14.05;8.90;;;17.00;85.60;;;;;;5074799;28;20254;-82
2021/07/10 06:45:34;;;;;;;14.52;10.05;;;17.10;86.20;;;;;;5073315;28;20564;-82
2021/07/10 06:48:01;;;;;;;10.93;7.40;;;17.20;86.60;;;;;;5072739;28;20195;-82
2021/07/10 06:50:28;;;;;;;11.93;7.85;;;17.20;85.50;;;;;;5073418;28;20175;-82
2021/07/10 06:52:53;;;;;;;11.65;7.60;;;17.20;84.90;;;;;;5074642;28;20221;-81
2021/07/10 06:55:19;;;;;;;12.85;9.07;;;17.10;83.70;;;;;;5074896;28;20536;-83
2021/07/10 06:57:45;;;;;;;11.52;8.27;;;17.10;84.20;;;;;;5073137;28;20229;-83
2021/07/10 07:00:14;;;;;;;8.43;7.47;;;17.10;84.80;;;;;;5073740;28;20631;-83
2021/07/10 07:02:40;;;;;;;12.45;7.45;;;17.10;84.60;;;;;;5073196;28;20179;-83
2021/07/10 07:05:06;;;;;;;9.15;7.25;;;17.10;84.50;;;;;;5073007;28;20556;-83
2021/07/10 07:07:32;;;;;;;9.60;7.00;;;17.20;84.90;;;;;;5074576;28;20199;-82
2021/07/10 07:09:57;;;;;;;8.00;7.03;;;17.20;83.90;;;;;;5073057;28;20175;-83
2021/07/10 07:12:23;;;;;;;7.30;6.50;;;17.20;84.50;;;;;;5072886;28;20167;-84
2021/07/10 07:14:49;;;;;;;7.63;6.82;;;17.20;84.20;;;;;;5074042;28;20171;-85
2021/07/10 07:17:15;;;;;;;10.73;7.75;;;17.30;84.30;;;;;;5073952;28;20203;-84
2021/07/10 07:19:41;;;;;;;10.18;7.43;;;17.30;84.30;;;;;;5072842;28;20198;-84
2021/07/10 07:22:06;;;;;;;10.60;6.80;;;17.30;83.90;;;;;;5072777;28;20658;-84
2021/07/10 07:24:33;;;;;;;10.13;7.72;;;17.30;84.30;;;;;;5072743;28;20653;-84
2021/07/10 07:26:58;;;;;;;8.90;7.20;;;17.30;84.20;;;;;;5072330;28;20566;-84
2021/07/10 07:29:24;;;;;;;7.47;6.40;;;17.40;83.70;;;;;;5073935;28;20179;-84
2021/07/10 07:31:50;;;;;;;15.50;7.35;;;17.40;83.00;;;;;;5073904;28;20171;-85
2021/07/10 07:34:15;;;;;;;7.47;6.60;;;17.50;84.00;;;;;;5074165;28;20526;-85
2021/07/10 07:36:41;;;;;;;7.50;6.80;;;17.50;84.00;;;;;;5073960;28;20187;-85
2021/07/10 07:39:07;;;;;;;8.90;6.45;;;17.60;84.20;;;;;;5072384;28;20214;-85
2021/07/10 07:41:37;;;;;;;8.43;5.35;;;17.60;83.00;;;;;;5072484;28;20254;-84
2021/07/10 07:44:04;;;;;;;6.30;5.70;;;17.70;81.80;;;;;;5072468;28;20638;-85
2021/07/10 07:46:30;;;;;;;9.55;6.10;;;17.70;82.10;;;;;;5073452;28;20207;-85
2021/07/10 07:48:55;;;;;;;6.10;5.47;;;17.70;82.00;;;;;;5073502;28;20206;-84
2021/07/10 07:51:22;;;;;;;7.68;5.80;;;17.80;82.00;;;;;;5072356;28;20639;-84
2021/07/10 07:53:50;;;;;;;7.40;6.07;;;17.80;81.90;;;;;;5072212;28;20591;-84
2021/07/10 07:56:16;;;;;;;6.75;5.80;;;17.80;82.20;;;;;;5073444;28;20671;-84
2021/07/10 07:58:44;;;;;;;8.10;6.75;;;17.90;82.10;;;;;;5072056;28;20179;-84
2021/07/10 08:01:10;;;;;;;6.97;5.90;;;18.00;81.90;;;;;;5071460;28;20179;-84
2021/07/10 08:03:36;;;;;;;7.45;6.43;;;18.00;82.10;;;;;;5072191;28;20227;-85
2021/07/10 08:06:03;;;;;;;11.00;5.95;;;18.00;81.90;;;;;;5072127;28;20294;-85
2021/07/10 08:08:29;;;;;;;8.18;6.45;;;17.90;81.10;;;;;;5073287;28;20195;-85
2021/07/10 08:10:55;;;;;;;11.20;6.50;;;18.00;82.00;;;;;;5072158;28;20178;-85
2021/07/10 08:13:20;;;;;;;9.88;5.45;;;18.10;82.80;;;;;;5073524;28;20646;-84
2021/07/10 08:15:46;;;;;;;7.85;5.13;;;18.00;81.20;;;;;;5071957;28;20680;-84
2021/07/10 08:18:12;;;;;;;8.98;5.68;;;18.00;80.80;;;;;;5073240;28;20608;-84
2021/07/10 08:20:38;;;;;;;6.15;5.10;;;18.00;80.10;;;;;;5073235;28;20586;-85
2021/07/10 08:23:04;;;;;;;8.30;6.32;;;18.00;80.60;;;;;;5071970;28;20263;-84
2021/07/10 08:25:31;;;;;;;7.63;5.18;;;18.00;81.70;;;;;;5071796;28;20199;-84
2021/07/10 08:27:57;;;;;;;8.55;5.47;;;18.00;80.20;;;;;;5073328;28;20203;-83
2021/07/10 08:30:24;;;;;;;8.75;5.90;;;18.10;80.30;;;;;;5072186;28;20175;-84
2021/07/10 08:32:50;;;;;;;8.77;6.32;;;18.20;80.10;;;;;;5073131;28;20190;-84
2021/07/10 08:35:17;;;;;;;11.07;7.45;;;18.30;80.80;;;;;;5078086;28;20172;-84
2021/07/10 08:37:44;;;;;;;6.63;6.03;;;18.30;82.00;;;;;;5074900;28;20179;-84
2021/07/10 08:40:11;;;;;;;9.43;6.03;;;18.20;80.90;;;;;;5072033;28;20179;-83
2021/07/10 08:42:38;;;;;;;8.55;6.22;;;18.20;82.10;;;;;;5071898;28;20217;-84
2021/07/10 08:45:07;;;;;;;7.78;6.78;;;18.30;82.50;;;;;;5072989;28;20294;-85
2021/07/10 08:47:36;;;;;;;10.05;6.88;;;18.40;82.40;;;;;;5072890;28;20199;-85
2021/07/10 08:50:03;;;;;;;9.70;6.40;;;18.60;82.10;;;;;;5071881;28;20539;-84
2021/07/10 08:52:29;;;;;;;9.70;6.43;;;18.70;80.90;;;;;;5071647;28;20653;-84
2021/07/10 08:54:55;;;;;;;6.72;4.75;;;18.70;81.00;;;;;;5072856;28;20259;-84
2021/07/10 08:57:21;;;;;;;6.45;4.65;;;18.70;78.80;;;;;;5071583;28;20234;-83
2021/07/10 08:59:46;;;;;;;3.95;3.55;;;18.80;78.40;;;;;;5072835;28;20167;-84
2021/07/10 09:02:12;;;;;;;7.15;5.15;;;18.70;76.40;;;;;;5072827;28;20193;-84
2021/07/10 09:04:38;;;;;;;8.10;4.60;;;18.80;78.10;;;;;;5072667;28;20176;-84
2021/07/10 09:07:04;;;;;;;6.15;4.80;;;18.80;77.20;;;;;;5071329;28;20253;-84
2021/07/10 09:09:46;;;;;;;6.63;5.18;;;18.80;77.90;;;;;;5071479;28;20258;-84
2021/07/10 09:12:13;;;;;;;5.70;4.53;;;18.90;78.20;;;;;;5075473;28;20190;-84
2021/07/10 09:14:40;;;;;;;9.10;5.75;;;19.10;77.80;;;;;;5075171;28;20172;-84
2021/07/10 09:17:19;;;;;;;7.53;5.10;;;19.20;77.70;;;;;;5076401;28;20195;-84
2021/07/10 09:19:47;;;;;;;7.55;4.60;;;19.20;76.80;;;;;;5075683;28;20175;-84
2021/07/10 09:22:25;;;;;;;6.03;4.47;;;19.40;75.40;;;;;;5076294;28;20171;-84
2021/07/10 09:24:50;;;;;;;4.90;4.45;;;19.30;76.20;;;;;;5076433;28;20166;-84
2021/07/10 09:27:16;;;;;;;7.03;4.03;;;19.50;73.90;;;;;;5074819;28;20207;-84
2021/07/10 09:29:44;;;;;;;6.93;4.82;;;19.70;73.80;;;;;;5076244;28;20171;-84
2021/07/10 09:32:12;;;;;;;8.80;4.75;;;19.70;72.20;;;;;;5075206;28;20171;-84
2021/07/10 09:34:53;;;;;;;7.10;5.40;;;19.70;74.90;;;;;;5076122;28;20167;-84
2021/07/10 09:37:20;;;;;;;6.43;5.35;;;19.90;76.00;;;;;;5074804;28;20196;-84
2021/07/10 09:39:56;;;;;;;7.22;5.05;;;19.80;74.80;;;;;;5074836;28;20190;-84
2021/07/10 09:42:37;;;;;;;10.05;5.72;;;20.00;75.60;;;;;;5076023;28;20155;-84
2021/07/10 09:45:18;;;;;;;7.38;5.95;;;19.80;76.70;;;;;;5075990;28;20151;-84
2021/07/10 09:47:45;;;;;;;9.52;6.47;;;19.50;76.20;;;;;;5074513;28;20206;-83
2021/07/10 09:50:17;;;;;;;6.43;5.82;;;19.30;76.90;;;;;;5075726;28;20220;-83
2021/07/10 09:52:43;;;;;;;10.43;6.80;;;19.70;76.80;;;;;;5074627;28;20171;-84
2021/07/10 09:55:11;;;;;;;7.03;6.28;;;19.70;76.20;;;;;;5074353;28;20174;-84
2021/07/10 09:57:40;;;;;;;6.65;6.00;;;19.80;77.60;;;;;;5074513;28;20183;-84
2021/07/10 10:00:17;;;;;;;6.35;5.50;;;19.80;74.40;;;;;;5076596;28;20179;-84
2021/07/10 10:02:45;;;;;;;8.57;5.53;;;20.20;76.20;;;;;;5075632;28;20163;-84
2021/07/10 10:05:14;;;;;;;5.85;5.15;;;20.50;75.00;;;;;;5074234;28;20182;-84
2021/07/10 10:07:48;;;;;;;5.95;4.20;;;20.20;74.20;;;;;;5075460;28;20195;-83
2021/07/10 10:10:27;;;;;;;6.13;4.93;;;20.30;71.70;;;;;;5075531;28;20178;-83
2021/07/10 10:13:05;;;;;;;5.45;4.55;;;20.50;72.90;;;;;;5075438;28;20173;-84
2021/07/10 10:15:52;;;;;;;5.65;4.75;;;20.80;72.00;;;;;;5074088;28;20685;-83
2021/07/10 10:18:25;;;;;;;5.63;4.07;;;20.30;71.10;;;;;;5075622;28;20190;-83
2021/07/10 10:20:52;;;;;;;5.60;4.13;;;20.20;70.80;;;;;;5075411;28;20182;-84
2021/07/10 10:23:19;;;;;;;8.10;4.70;;;20.70;71.50;;;;;;5074241;28;20259;-84
2021/07/10 10:25:45;;;;;;;6.50;4.47;;;20.30;70.70;;;;;;5075146;28;20228;-84
2021/07/10 10:28:19;;;;;;;5.15;3.65;;;20.30;70.30;;;;;;5075014;28;20219;-83
2021/07/10 10:30:47;;;;;;;5.93;4.10;;;20.40;71.60;;;;;;5073876;28;20186;-84
2021/07/10 10:33:14;;;;;;;6.07;3.80;;;20.30;71.30;;;;;;5073803;28;20167;-83
2021/07/10 10:35:41;;;;;;;5.68;3.90;;;20.30;71.20;;;;;;5075175;28;20283;-83
2021/07/10 10:38:07;;;;;;;3.85;3.45;;;20.30;69.10;;;;;;5073735;28;20551;-83
2021/07/10 10:40:33;;;;;;;6.40;3.90;;;20.30;71.10;;;;;;5073665;28;20172;-83
2021/07/10 10:43:02;;;;;;;6.20;4.10;;;20.30;68.30;;;;;;5073581;28;20179;-83
2021/07/10 10:45:32;;;;;;;5.78;4.35;;;20.80;70.10;;;;;;5073431;28;20568;-84
2021/07/10 10:47:58;;;;;;;4.93;4.18;;;21.20;68.20;;;;;;5073466;28;20199;-83
2021/07/10 10:50:27;;;;;;;6.28;5.00;;;21.30;68.00;;;;;;5073374;28;20203;-83
2021/07/10 10:52:56;;;;;;;6.28;5.68;;;21.20;64.80;;;;;;5074648;28;20258;-83
2021/07/10 10:55:42;;;;;;;6.97;6.05;;;21.30;67.00;;;;;;5073249;28;20258;-82
2021/07/10 10:58:16;;;;;;;11.35;6.03;;;21.20;66.30;;;;;;5074530;28;20226;-83
2021/07/10 11:00:47;;;;;;;5.43;4.90;;;20.80;66.80;;;;;;5074535;28;20631;-83
2021/07/10 11:03:20;;;;;;;4.65;4.22;;;21.00;64.00;;;;;;5074377;28;20288;-83
2021/07/10 11:05:53;;;;;;;5.38;4.25;;;21.00;63.30;;;;;;5072995;28;20229;-84
2021/07/10 11:08:19;;;;;;;5.75;4.70;;;20.50;65.80;;;;;;5073067;28;20253;-83
2021/07/10 11:11:07;;;;;;;4.60;4.20;;;20.50;66.70;;;;;;5074266;28;20172;-83
2021/07/10 11:13:38;;;;;;;5.28;4.75;;;20.50;64.60;;;;;;5074371;28;20195;-83
2021/07/10 11:16:20;;;;;;;7.68;4.07;;;20.70;67.90;;;;;;5074614;28;20191;-83
2021/07/10 11:19:06;;;;;;;3.95;3.55;;;21.00;67.40;;;;;;5072915;28;20168;-83
2021/07/10 11:21:31;;;;;;;5.50;3.55;;;21.20;65.30;;;;;;5074420;28;20169;-84
2021/07/10 11:24:25;;;;;;;4.88;3.10;;;21.20;66.30;;;;;;5074374;28;20246;-83
2021/07/10 11:26:56;;;;;;;7.30;3.67;;;21.10;66.20;;;;;;5071105;28;20306;-83
2021/07/10 11:29:32;;;;;;;5.65;3.30;;;21.10;64.10;;;;;;5074170;28;20168;-83
2021/07/10 11:32:16;;;;;;;3.83;3.28;;;20.80;65.50;;;;;;5072562;28;20186;-83
2021/07/10 11:34:59;;;;;;;4.93;3.53;;;20.70;67.00;;;;;;5072382;28;20645;-83
2021/07/10 11:37:26;;;;;;;3.90;3.42;;;20.70;67.30;;;;;;5072548;28;20257;-83
2021/07/10 11:39:57;;;;;;;4.97;3.47;;;20.30;68.20;;;;;;5072501;28;20198;-83
2021/07/10 11:42:23;;;;;;;3.53;3.22;;;20.30;66.80;;;;;;5072377;28;20179;-83
2021/07/10 11:45:04;;;;;;;3.67;3.38;;;20.40;69.00;;;;;;5072366;28;20175;-83
2021/07/10 11:47:31;;;;;;;3.92;3.30;;;20.70;66.70;;;;;;5073392;28;20686;-82
2021/07/10 11:49:57;;;;;;;7.50;3.20;;;20.80;65.90;;;;;;5073887;28;20510;-82
2021/07/10 11:52:23;;;;;;;4.63;3.67;;;20.50;66.90;;;;;;5072342;28;20207;-81
2021/07/10 11:54:52;;;;;;;3.85;3.50;;;20.40;68.20;;;;;;5073480;28;20210;-81
2021/07/10 11:57:19;;;;;;;6.53;3.78;;;20.60;69.80;;;;;;5073394;28;20679;-81
2021/07/10 11:59:45;;;;;;;3.97;3.58;;;20.60;65.90;;;;;;5073455;28;20216;-81
2021/07/10 12:02:25;;;;;;;5.00;3.97;;;20.70;67.70;;;;;;5073352;28;20167;-81
2021/07/10 12:05:05;;;;;;;4.28;3.88;;;20.80;65.90;;;;;;5072019;28;20267;-81
2021/07/10 12:07:34;;;;;;;5.45;4.18;;;21.10;63.90;;;;;;5073220;28;20560;-81
2021/07/10 12:10:01;;;;;;;5.00;3.95;;;21.30;67.20;;;;;;5073266;28;20273;-81
2021/07/10 12:12:26;;;;;;;3.95;3.55;;;21.20;66.10;;;;;;5073484;28;20588;-81
2021/07/10 12:14:53;;;;;;;7.13;3.78;;;21.40;65.10;;;;;;5072135;28;20171;-81
2021/07/10 12:17:20;;;;;;;4.50;3.90;;;21.40;65.20;;;;;;5071886;28;20689;-81
2021/07/10 12:19:47;;;;;;;5.75;3.63;;;21.40;67.20;;;;;;5073132;28;20258;-81
2021/07/10 12:22:13;;;;;;;5.43;3.67;;;21.60;66.30;;;;;;5073365;28;20199;-81
2021/07/10 12:24:39;;;;;;;4.28;3.60;;;21.50;64.50;;;;;;5071973;28;20677;-82
2021/07/10 12:27:12;;;;;;;4.90;4.13;;;21.40;64.60;;;;;;5073157;28;20203;-81
2021/07/10 12:29:48;;;;;;;5.60;4.65;;;21.30;67.60;;;;;;5071935;28;20171;-82
2021/07/10 12:32:15;;;;;;;4.65;3.33;;;21.90;65.60;;;;;;5073422;28;20613;-81
2021/07/10 12:34:50;;;;;;;4.15;3.70;;;21.90;62.80;;;;;;5073026;28;20164;-80
2021/07/10 12:37:27;;;;;;;5.93;3.63;;;21.50;64.70;;;;;;5073056;28;20194;-81